Terminal Aerodrome Forecast
Issued by NWS

Home | Current Version | Previous Version | Text Only | Print | Product List | Glossary Off
Versions: 1 2 3 4 5 6 7 8 9 10 11 12 13 14 15 16 17

000
FTUS43 KABR 212320
TAFMBG
TAF
KMBG 212320Z 2200/2224 30013G20KT P6SM OVC060
     FM220200 29011KT P6SM SCT060
     FM220900 26007KT P6SM SKC
     FM221300 21006KT P6SM FEW200
     FM221700 20012KT P6SM SCT070=

USA.gov is the U.S. government's official web portal to all federal, state and local government web resources and services.